Minneapolis, Minnesota
Current Conditions -  °F | °C
As of 5:53 AM on Saturday 25 Oct 2014 (Local Time) from KMSP Reporting Station
Clear Clear  
Wind Chill: 13°   Ceiling: Unl
Heat Index: 13°   Visibility: 10mi
Dew Point:   Wind: 10mph
Humidity: 45%   Direction: 310°NW
Pressure: 29.98"   Gusts: NA
Location:  44.98°N, 93.26°W
Report Text: KMSP 251053Z 31009KT 10SM CLR 13/01 A2998 RMK AO2 SLP150 T01280011
Loading
Personal Weather Stations






























Interactive Weather Map New forecast layout! Learn more

10-Day Weather Forecast

Advertisements
Track Severe Weather on mobile